sensor_id;sensor_type;location;lat;lon;timestamp;temperature;humidity
20744;DHT22;56303;52.160;-0.428;2023-06-24T00:00:12;20.70;99.90
20744;DHT22;56303;52.160;-0.428;2023-06-24T00:02:40;20.60;99.90
20744;DHT22;56303;52.160;-0.428;2023-06-24T00:05:10;20.60;99.90
20744;DHT22;56303;52.160;-0.428;2023-06-24T00:07:37;20.60;99.90
20744;DHT22;56303;52.160;-0.428;2023-06-24T00:10:13;20.50;99.90
20744;DHT22;56303;52.160;-0.428;2023-06-24T00:12:41;20.50;99.90
20744;DHT22;56303;52.160;-0.428;2023-06-24T00:15:09;20.50;99.90
20744;DHT22;56303;52.160;-0.428;2023-06-24T00:17:37;20.40;99.90
20744;DHT22;56303;52.160;-0.428;2023-06-24T00:20:04;20.40;99.90
20744;DHT22;56303;52.160;-0.428;2023-06-24T00:22:33;20.50;99.90
20744;DHT22;56303;52.160;-0.428;2023-06-24T00:25:00;20.60;99.90
20744;DHT22;56303;52.160;-0.428;2023-06-24T00:27:27;20.70;99.90
20744;DHT22;56303;52.160;-0.428;2023-06-24T00:29:54;20.80;99.90
20744;DHT22;56303;52.160;-0.428;2023-06-24T00:32:21;20.80;99.90
20744;DHT22;56303;52.160;-0.428;2023-06-24T00:34:48;20.80;99.90
20744;DHT22;56303;52.160;-0.428;2023-06-24T00:37:17;20.70;99.90
20744;DHT22;56303;52.160;-0.428;2023-06-24T00:39:44;20.60;99.90
20744;DHT22;56303;52.160;-0.428;2023-06-24T00:42:11;20.50;99.90
20744;DHT22;56303;52.160;-0.428;2023-06-24T00:44:38;20.60;99.90
20744;DHT22;56303;52.160;-0.428;2023-06-24T00:47:06;20.30;99.90
20744;DHT22;56303;52.160;-0.428;2023-06-24T00:49:34;20.10;99.90
20744;DHT22;56303;52.160;-0.428;2023-06-24T00:52:01;20.10;99.90
20744;DHT22;56303;52.160;-0.428;2023-06-24T00:54:28;20.20;99.90
20744;DHT22;56303;52.160;-0.428;2023-06-24T00:56:58;20.20;99.90
20744;DHT22;56303;52.160;-0.428;2023-06-24T00:59:28;20.20;99.90
20744;DHT22;56303;52.160;-0.428;2023-06-24T01:01:56;20.20;99.90
20744;DHT22;56303;52.160;-0.428;2023-06-24T01:04:23;20.10;99.90
20744;DHT22;56303;52.160;-0.428;2023-06-24T01:06:52;20.10;99.90
20744;DHT22;56303;52.160;-0.428;2023-06-24T01:09:20;20.00;99.90
20744;DHT22;56303;52.160;-0.428;2023-06-24T01:11:47;19.90;99.90
20744;DHT22;56303;52.160;-0.428;2023-06-24T01:14:15;19.70;99.90
20744;DHT22;56303;52.160;-0.428;2023-06-24T01:16:53;19.70;99.90
20744;DHT22;56303;52.160;-0.428;2023-06-24T01:27:45;19.50;99.90
20744;DHT22;56303;52.160;-0.428;2023-06-24T01:33:03;19.50;99.90
20744;DHT22;56303;52.160;-0.428;2023-06-24T01:35:33;19.50;99.90
20744;DHT22;56303;52.160;-0.428;2023-06-24T01:38:05;19.40;99.90
20744;DHT22;56303;52.160;-0.428;2023-06-24T01:40:38;19.40;99.90
20744;DHT22;56303;52.160;-0.428;2023-06-24T01:43:08;19.40;99.90
20744;DHT22;56303;52.160;-0.428;2023-06-24T01:45:40;19.40;99.90
20744;DHT22;56303;52.160;-0.428;2023-06-24T01:48:12;19.40;99.90
20744;DHT22;56303;52.160;-0.428;2023-06-24T01:50:44;19.50;99.90
20744;DHT22;56303;52.160;-0.428;2023-06-24T01:53:12;19.50;99.90
20744;DHT22;56303;52.160;-0.428;2023-06-24T01:55:41;19.40;99.90
20744;DHT22;56303;52.160;-0.428;2023-06-24T01:58:09;19.40;99.90
20744;DHT22;56303;52.160;-0.428;2023-06-24T02:00:39;19.20;99.90
20744;DHT22;56303;52.160;-0.428;2023-06-24T02:03:07;19.30;99.90
20744;DHT22;56303;52.160;-0.428;2023-06-24T02:05:36;19.20;99.90
20744;DHT22;56303;52.160;-0.428;2023-06-24T02:08:11;19.30;99.90
20744;DHT22;56303;52.160;-0.428;2023-06-24T02:10:40;19.30;99.90
20744;DHT22;56303;52.160;-0.428;2023-06-24T02:13:09;19.30;99.90
20744;DHT22;56303;52.160;-0.428;2023-06-24T02:15:38;19.40;99.90
20744;DHT22;56303;52.160;-0.428;2023-06-24T02:18:08;19.50;99.90
20744;DHT22;56303;52.160;-0.428;2023-06-24T02:20:37;19.50;99.90
20744;DHT22;56303;52.160;-0.428;2023-06-24T02:23:06;19.20;99.90
20744;DHT22;56303;52.160;-0.428;2023-06-24T02:25:35;19.10;99.90
20744;DHT22;56303;52.160;-0.428;2023-06-24T02:28:06;19.10;99.90
20744;DHT22;56303;52.160;-0.428;2023-06-24T02:30:37;19.10;99.90
20744;DHT22;56303;52.160;-0.428;2023-06-24T02:33:05;19.30;99.90
20744;DHT22;56303;52.160;-0.428;2023-06-24T02:35:33;19.30;99.90
20744;DHT22;56303;52.160;-0.428;2023-06-24T02:38:00;19.10;99.90
20744;DHT22;56303;52.160;-0.428;2023-06-24T02:40:28;19.30;99.90
20744;DHT22;56303;52.160;-0.428;2023-06-24T02:42:56;19.50;99.90
20744;DHT22;56303;52.160;-0.428;2023-06-24T02:45:23;19.30;99.90
20744;DHT22;56303;52.160;-0.428;2023-06-24T02:47:50;19.20;99.90
20744;DHT22;56303;52.160;-0.428;2023-06-24T02:50:18;19.30;99.90
20744;DHT22;56303;52.160;-0.428;2023-06-24T02:52:45;19.30;99.90
20744;DHT22;56303;52.160;-0.428;2023-06-24T02:55:12;19.40;99.90
20744;DHT22;56303;52.160;-0.428;2023-06-24T02:57:40;19.40;99.90
20744;DHT22;56303;52.160;-0.428;2023-06-24T03:00:07;19.50;99.90
20744;DHT22;56303;52.160;-0.428;2023-06-24T03:02:42;19.40;99.90
20744;DHT22;56303;52.160;-0.428;2023-06-24T03:05:10;18.90;99.90
20744;DHT22;56303;52.160;-0.428;2023-06-24T03:07:38;19.00;99.90
20744;DHT22;56303;52.160;-0.428;2023-06-24T03:10:06;18.90;99.90
20744;DHT22;56303;52.160;-0.428;2023-06-24T03:12:33;19.00;99.90
20744;DHT22;56303;52.160;-0.428;2023-06-24T03:15:00;19.10;99.90
20744;DHT22;56303;52.160;-0.428;2023-06-24T03:17:27;19.00;99.90
20744;DHT22;56303;52.160;-0.428;2023-06-24T03:19:54;19.00;99.90
20744;DHT22;56303;52.160;-0.428;2023-06-24T03:22:22;18.90;99.90
20744;DHT22;56303;52.160;-0.428;2023-06-24T03:24:49;18.80;99.90
20744;DHT22;56303;52.160;-0.428;2023-06-24T03:27:16;18.70;99.90
20744;DHT22;56303;52.160;-0.428;2023-06-24T03:29:42;19.00;99.90
20744;DHT22;56303;52.160;-0.428;2023-06-24T03:32:09;19.10;99.90
20744;DHT22;56303;52.160;-0.428;2023-06-24T03:34:36;18.90;99.90
20744;DHT22;56303;52.160;-0.428;2023-06-24T03:37:04;18.80;99.90
20744;DHT22;56303;52.160;-0.428;2023-06-24T03:39:31;19.00;99.90
20744;DHT22;56303;52.160;-0.428;2023-06-24T03:41:58;19.00;99.90
20744;DHT22;56303;52.160;-0.428;2023-06-24T03:44:25;19.00;99.90
20744;DHT22;56303;52.160;-0.428;2023-06-24T03:46:51;18.80;99.90
20744;DHT22;56303;52.160;-0.428;2023-06-24T03:49:18;18.70;99.90
20744;DHT22;56303;52.160;-0.428;2023-06-24T03:51:45;18.70;99.90
20744;DHT22;56303;52.160;-0.428;2023-06-24T03:54:12;18.60;99.90
20744;DHT22;56303;52.160;-0.428;2023-06-24T03:56:39;18.70;99.90
20744;DHT22;56303;52.160;-0.428;2023-06-24T03:59:06;18.70;99.90
20744;DHT22;56303;52.160;-0.428;2023-06-24T04:01:33;18.40;99.90
20744;DHT22;56303;52.160;-0.428;2023-06-24T04:04:00;18.60;99.90
20744;DHT22;56303;52.160;-0.428;2023-06-24T04:06:27;18.60;99.90
20744;DHT22;56303;52.160;-0.428;2023-06-24T04:08:54;18.50;99.90
20744;DHT22;56303;52.160;-0.428;2023-06-24T04:11:21;18.60;99.90
20744;DHT22;56303;52.160;-0.428;2023-06-24T04:13:48;18.60;99.90
20744;DHT22;56303;52.160;-0.428;2023-06-24T04:16:15;18.60;99.90
20744;DHT22;56303;52.160;-0.428;2023-06-24T04:18:42;18.70;99.90
20744;DHT22;56303;52.160;-0.428;2023-06-24T04:21:09;18.60;99.90
20744;DHT22;56303;52.160;-0.428;2023-06-24T04:23:36;18.50;99.90
20744;DHT22;56303;52.160;-0.428;2023-06-24T04:26:03;18.50;99.90
20744;DHT22;56303;52.160;-0.428;2023-06-24T04:28:29;18.50;99.90
20744;DHT22;56303;52.160;-0.428;2023-06-24T04:30:56;18.50;99.90
20744;DHT22;56303;52.160;-0.428;2023-06-24T04:33:23;18.60;99.90
20744;DHT22;56303;52.160;-0.428;2023-06-24T04:35:51;18.60;99.90
20744;DHT22;56303;52.160;-0.428;2023-06-24T04:38:18;18.40;99.90
20744;DHT22;56303;52.160;-0.428;2023-06-24T04:40:45;18.40;99.90
20744;DHT22;56303;52.160;-0.428;2023-06-24T04:43:12;18.40;99.90
20744;DHT22;56303;52.160;-0.428;2023-06-24T04:45:39;18.60;99.90
20744;DHT22;56303;52.160;-0.428;2023-06-24T04:48:06;18.60;99.90
20744;DHT22;56303;52.160;-0.428;2023-06-24T04:50:33;18.70;99.90
20744;DHT22;56303;52.160;-0.428;2023-06-24T04:53:00;18.90;99.90
20744;DHT22;56303;52.160;-0.428;2023-06-24T04:55:28;18.60;99.90
20744;DHT22;56303;52.160;-0.428;2023-06-24T04:57:58;18.40;99.90
20744;DHT22;56303;52.160;-0.428;2023-06-24T05:00:25;18.60;99.90
20744;DHT22;56303;52.160;-0.428;2023-06-24T05:02:52;18.60;99.90
20744;DHT22;56303;52.160;-0.428;2023-06-24T05:05:19;18.70;99.90
20744;DHT22;56303;52.160;-0.428;2023-06-24T05:07:47;18.90;99.90
20744;DHT22;56303;52.160;-0.428;2023-06-24T05:10:14;19.00;99.90
20744;DHT22;56303;52.160;-0.428;2023-06-24T05:12:41;19.10;99.90
20744;DHT22;56303;52.160;-0.428;2023-06-24T05:15:09;19.00;99.90
20744;DHT22;56303;52.160;-0.428;2023-06-24T05:17:36;19.20;99.90
20744;DHT22;56303;52.160;-0.428;2023-06-24T05:20:04;19.40;99.90
20744;DHT22;56303;52.160;-0.428;2023-06-24T05:22:31;19.40;99.90
20744;DHT22;56303;52.160;-0.428;2023-06-24T05:24:58;19.20;99.90
20744;DHT22;56303;52.160;-0.428;2023-06-24T05:27:24;19.20;99.90
20744;DHT22;56303;52.160;-0.428;2023-06-24T05:29:52;19.20;99.90
20744;DHT22;56303;52.160;-0.428;2023-06-24T05:32:18;19.20;99.90
20744;DHT22;56303;52.160;-0.428;2023-06-24T05:34:47;19.00;99.90
20744;DHT22;56303;52.160;-0.428;2023-06-24T05:37:14;19.20;99.90
20744;DHT22;56303;52.160;-0.428;2023-06-24T05:39:41;19.20;99.90
20744;DHT22;56303;52.160;-0.428;2023-06-24T05:42:08;19.10;99.90
20744;DHT22;56303;52.160;-0.428;2023-06-24T05:44:35;19.50;99.90
20744;DHT22;56303;52.160;-0.428;2023-06-24T05:47:02;19.40;99.90
20744;DHT22;56303;52.160;-0.428;2023-06-24T05:49:28;19.30;99.90
20744;DHT22;56303;52.160;-0.428;2023-06-24T05:51:56;19.30;99.90
20744;DHT22;56303;52.160;-0.428;2023-06-24T05:54:23;19.40;99.90
20744;DHT22;56303;52.160;-0.428;2023-06-24T05:56:50;19.70;99.90
20744;DHT22;56303;52.160;-0.428;2023-06-24T05:59:17;19.80;99.90
20744;DHT22;56303;52.160;-0.428;2023-06-24T06:01:44;20.00;99.90
20744;DHT22;56303;52.160;-0.428;2023-06-24T06:04:11;20.10;99.90
20744;DHT22;56303;52.160;-0.428;2023-06-24T06:06:38;19.90;99.90
20744;DHT22;56303;52.160;-0.428;2023-06-24T06:09:06;20.10;99.90
20744;DHT22;56303;52.160;-0.428;2023-06-24T06:11:33;20.00;99.90
20744;DHT22;56303;52.160;-0.428;2023-06-24T06:14:00;20.10;99.90
20744;DHT22;56303;52.160;-0.428;2023-06-24T06:16:26;20.30;99.90
20744;DHT22;56303;52.160;-0.428;2023-06-24T06:18:55;20.40;99.90
20744;DHT22;56303;52.160;-0.428;2023-06-24T06:21:22;20.40;99.90
20744;DHT22;56303;52.160;-0.428;2023-06-24T06:23:48;20.30;99.90
20744;DHT22;56303;52.160;-0.428;2023-06-24T06:26:16;20.30;99.90
20744;DHT22;56303;52.160;-0.428;2023-06-24T06:28:42;20.40;99.90
20744;DHT22;56303;52.160;-0.428;2023-06-24T06:31:09;20.70;99.90
20744;DHT22;56303;52.160;-0.428;2023-06-24T06:33:36;20.70;99.90
20744;DHT22;56303;52.160;-0.428;2023-06-24T06:36:03;20.60;99.90
20744;DHT22;56303;52.160;-0.428;2023-06-24T06:38:32;20.50;99.90
20744;DHT22;56303;52.160;-0.428;2023-06-24T06:40:59;20.60;99.90
20744;DHT22;56303;52.160;-0.428;2023-06-24T06:43:26;20.50;99.90
20744;DHT22;56303;52.160;-0.428;2023-06-24T06:45:53;20.40;99.90
20744;DHT22;56303;52.160;-0.428;2023-06-24T06:48:20;20.30;99.90
20744;DHT22;56303;52.160;-0.428;2023-06-24T06:50:47;20.40;99.90
20744;DHT22;56303;52.160;-0.428;2023-06-24T06:53:14;20.50;99.90
20744;DHT22;56303;52.160;-0.428;2023-06-24T06:55:41;20.70;99.90
20744;DHT22;56303;52.160;-0.428;2023-06-24T06:58:09;20.70;99.90
20744;DHT22;56303;52.160;-0.428;2023-06-24T07:00:36;20.80;99.90
20744;DHT22;56303;52.160;-0.428;2023-06-24T07:03:03;20.70;99.90
20744;DHT22;56303;52.160;-0.428;2023-06-24T07:05:30;20.80;99.90
20744;DHT22;56303;52.160;-0.428;2023-06-24T07:07:57;21.10;99.90
20744;DHT22;56303;52.160;-0.428;2023-06-24T07:10:23;21.20;99.90
20744;DHT22;56303;52.160;-0.428;2023-06-24T07:12:50;21.50;99.90
20744;DHT22;56303;52.160;-0.428;2023-06-24T07:15:17;21.60;99.90
20744;DHT22;56303;52.160;-0.428;2023-06-24T07:17:46;21.70;99.90
20744;DHT22;56303;52.160;-0.428;2023-06-24T07:20:13;21.80;99.90
20744;DHT22;56303;52.160;-0.428;2023-06-24T07:22:40;21.80;99.90
20744;DHT22;56303;52.160;-0.428;2023-06-24T07:25:07;21.50;99.90
20744;DHT22;56303;52.160;-0.428;2023-06-24T07:27:34;21.40;99.90
20744;DHT22;56303;52.160;-0.428;2023-06-24T07:30:01;21.50;99.90
20744;DHT22;56303;52.160;-0.428;2023-06-24T07:32:28;21.50;99.90
20744;DHT22;56303;52.160;-0.428;2023-06-24T07:34:54;21.50;99.90
20744;DHT22;56303;52.160;-0.428;2023-06-24T07:37:21;21.90;99.90
20744;DHT22;56303;52.160;-0.428;2023-06-24T07:39:51;22.00;99.90
20744;DHT22;56303;52.160;-0.428;2023-06-24T07:42:17;22.10;99.90
20744;DHT22;56303;52.160;-0.428;2023-06-24T07:44:46;21.90;99.90
20744;DHT22;56303;52.160;-0.428;2023-06-24T07:47:14;22.00;99.90
20744;DHT22;56303;52.160;-0.428;2023-06-24T07:49:41;22.10;99.90
20744;DHT22;56303;52.160;-0.428;2023-06-24T07:52:08;21.90;99.90
20744;DHT22;56303;52.160;-0.428;2023-06-24T07:54:35;22.30;99.90
20744;DHT22;56303;52.160;-0.428;2023-06-24T07:57:02;22.10;99.90
20744;DHT22;56303;52.160;-0.428;2023-06-24T07:59:29;22.20;99.90
20744;DHT22;56303;52.160;-0.428;2023-06-24T08:01:56;22.20;99.90
20744;DHT22;56303;52.160;-0.428;2023-06-24T08:04:23;22.00;99.90
20744;DHT22;56303;52.160;-0.428;2023-06-24T08:06:50;22.20;99.90
20744;DHT22;56303;52.160;-0.428;2023-06-24T08:09:17;22.10;99.90
20744;DHT22;56303;52.160;-0.428;2023-06-24T08:11:44;22.10;99.90
20744;DHT22;56303;52.160;-0.428;2023-06-24T08:14:11;22.20;99.90
20744;DHT22;56303;52.160;-0.428;2023-06-24T08:16:38;21.70;99.90
20744;DHT22;56303;52.160;-0.428;2023-06-24T08:19:04;21.70;99.90
20744;DHT22;56303;52.160;-0.428;2023-06-24T08:21:31;21.80;99.90
20744;DHT22;56303;52.160;-0.428;2023-06-24T08:23:59;21.80;99.90
20744;DHT22;56303;52.160;-0.428;2023-06-24T08:26:26;21.90;99.90
20744;DHT22;56303;52.160;-0.428;2023-06-24T08:28:52;22.20;99.90
20744;DHT22;56303;52.160;-0.428;2023-06-24T08:31:19;22.10;99.90
20744;DHT22;56303;52.160;-0.428;2023-06-24T08:33:52;22.30;99.90
20744;DHT22;56303;52.160;-0.428;2023-06-24T08:36:26;22.50;99.90
20744;DHT22;56303;52.160;-0.428;2023-06-24T08:38:54;22.60;99.90
20744;DHT22;56303;52.160;-0.428;2023-06-24T08:41:20;22.90;99.90
20744;DHT22;56303;52.160;-0.428;2023-06-24T08:43:48;23.20;99.90
20744;DHT22;56303;52.160;-0.428;2023-06-24T08:46:16;23.00;99.90
20744;DHT22;56303;52.160;-0.428;2023-06-24T08:48:45;23.40;99.90
20744;DHT22;56303;52.160;-0.428;2023-06-24T08:51:18;23.30;99.90
20744;DHT22;56303;52.160;-0.428;2023-06-24T08:53:47;23.80;99.90
20744;DHT22;56303;52.160;-0.428;2023-06-24T08:56:15;23.70;99.90
20744;DHT22;56303;52.160;-0.428;2023-06-24T08:58:42;24.00;99.90
20744;DHT22;56303;52.160;-0.428;2023-06-24T09:01:09;23.60;99.90
20744;DHT22;56303;52.160;-0.428;2023-06-24T09:03:36;23.20;99.90
20744;DHT22;56303;52.160;-0.428;2023-06-24T09:06:03;23.40;99.90
20744;DHT22;56303;52.160;-0.428;2023-06-24T09:08:30;23.90;99.90
20744;DHT22;56303;52.160;-0.428;2023-06-24T09:10:57;23.90;99.90
20744;DHT22;56303;52.160;-0.428;2023-06-24T09:13:34;24.00;99.90
20744;DHT22;56303;52.160;-0.428;2023-06-24T09:16:29;23.70;99.90
20744;DHT22;56303;52.160;-0.428;2023-06-24T09:18:56;23.80;99.90
20744;DHT22;56303;52.160;-0.428;2023-06-24T09:21:27;24.00;99.90
20744;DHT22;56303;52.160;-0.428;2023-06-24T09:23:58;24.30;99.90
20744;DHT22;56303;52.160;-0.428;2023-06-24T09:26:26;24.20;99.90
20744;DHT22;56303;52.160;-0.428;2023-06-24T09:28:53;24.00;99.90
20744;DHT22;56303;52.160;-0.428;2023-06-24T09:31:23;23.90;99.90
20744;DHT22;56303;52.160;-0.428;2023-06-24T09:33:50;24.20;99.90
20744;DHT22;56303;52.160;-0.428;2023-06-24T09:36:17;24.00;99.90
20744;DHT22;56303;52.160;-0.428;2023-06-24T09:38:44;24.20;99.90
20744;DHT22;56303;52.160;-0.428;2023-06-24T09:41:12;24.30;99.90
20744;DHT22;56303;52.160;-0.428;2023-06-24T09:43:42;24.40;99.90
20744;DHT22;56303;52.160;-0.428;2023-06-24T09:46:11;24.70;99.90
20744;DHT22;56303;52.160;-0.428;2023-06-24T09:48:39;24.50;99.90
20744;DHT22;56303;52.160;-0.428;2023-06-24T09:51:07;24.90;99.90
20744;DHT22;56303;52.160;-0.428;2023-06-24T09:53:37;25.00;99.90
20744;DHT22;56303;52.160;-0.428;2023-06-24T09:56:08;25.30;99.90
20744;DHT22;56303;52.160;-0.428;2023-06-24T09:58:36;25.10;99.90
20744;DHT22;56303;52.160;-0.428;2023-06-24T10:01:04;25.20;99.90
20744;DHT22;56303;52.160;-0.428;2023-06-24T10:03:33;24.90;99.90
20744;DHT22;56303;52.160;-0.428;2023-06-24T10:06:02;25.20;99.90
20744;DHT22;56303;52.160;-0.428;2023-06-24T10:08:30;25.50;99.90
20744;DHT22;56303;52.160;-0.428;2023-06-24T10:10:59;25.60;99.90
20744;DHT22;56303;52.160;-0.428;2023-06-24T10:13:26;25.90;99.90
20744;DHT22;56303;52.160;-0.428;2023-06-24T10:15:54;25.70;99.90
20744;DHT22;56303;52.160;-0.428;2023-06-24T10:21:02;25.00;99.90
20744;DHT22;56303;52.160;-0.428;2023-06-24T10:23:50;25.20;99.90
20744;DHT22;56303;52.160;-0.428;2023-06-24T10:26:29;25.30;99.90
20744;DHT22;56303;52.160;-0.428;2023-06-24T10:34:29;25.20;99.90
20744;DHT22;56303;52.160;-0.428;2023-06-24T10:37:03;25.40;99.90
20744;DHT22;56303;52.160;-0.428;2023-06-24T10:44:59;25.50;99.90
20744;DHT22;56303;52.160;-0.428;2023-06-24T10:47:27;25.50;99.90
20744;DHT22;56303;52.160;-0.428;2023-06-24T10:49:55;25.80;99.90
20744;DHT22;56303;52.160;-0.428;2023-06-24T10:52:23;26.00;99.90
20744;DHT22;56303;52.160;-0.428;2023-06-24T10:54:51;25.80;99.90
20744;DHT22;56303;52.160;-0.428;2023-06-24T10:57:26;25.80;99.90
20744;DHT22;56303;52.160;-0.428;2023-06-24T10:59:56;25.80;99.90
20744;DHT22;56303;52.160;-0.428;2023-06-24T11:02:25;26.20;99.90
20744;DHT22;56303;52.160;-0.428;2023-06-24T11:04:54;26.50;99.90
20744;DHT22;56303;52.160;-0.428;2023-06-24T11:07:31;26.60;99.90
20744;DHT22;56303;52.160;-0.428;2023-06-24T11:10:14;26.80;99.90
20744;DHT22;56303;52.160;-0.428;2023-06-24T11:12:42;26.90;99.90
20744;DHT22;56303;52.160;-0.428;2023-06-24T11:15:11;26.80;99.90
20744;DHT22;56303;52.160;-0.428;2023-06-24T11:17:40;26.70;99.90
20744;DHT22;56303;52.160;-0.428;2023-06-24T11:20:11;26.50;99.90
20744;DHT22;56303;52.160;-0.428;2023-06-24T11:22:42;27.00;99.90
20744;DHT22;56303;52.160;-0.428;2023-06-24T11:27:43;27.90;99.90
20744;DHT22;56303;52.160;-0.428;2023-06-24T11:30:11;27.80;99.90
20744;DHT22;56303;52.160;-0.428;2023-06-24T11:32:39;27.60;99.90
20744;DHT22;56303;52.160;-0.428;2023-06-24T11:35:08;27.60;99.90
20744;DHT22;56303;52.160;-0.428;2023-06-24T11:37:35;27.00;99.90
20744;DHT22;56303;52.160;-0.428;2023-06-24T11:40:04;27.10;99.90
20744;DHT22;56303;52.160;-0.428;2023-06-24T11:42:39;27.20;99.90
20744;DHT22;56303;52.160;-0.428;2023-06-24T11:45:08;26.70;99.90
20744;DHT22;56303;52.160;-0.428;2023-06-24T11:47:39;26.90;99.90
20744;DHT22;56303;52.160;-0.428;2023-06-24T11:50:07;27.10;99.90
20744;DHT22;56303;52.160;-0.428;2023-06-24T11:52:46;27.40;99.90
20744;DHT22;56303;52.160;-0.428;2023-06-24T11:55:19;27.60;99.90
20744;DHT22;56303;52.160;-0.428;2023-06-24T11:57:58;27.80;99.90
20744;DHT22;56303;52.160;-0.428;2023-06-24T12:00:28;28.20;99.90
20744;DHT22;56303;52.160;-0.428;2023-06-24T12:02:57;28.20;99.90
20744;DHT22;56303;52.160;-0.428;2023-06-24T12:05:29;28.50;99.90
20744;DHT22;56303;52.160;-0.428;2023-06-24T12:08:07;28.60;99.90
20744;DHT22;56303;52.160;-0.428;2023-06-24T12:10:36;28.60;99.90
20744;DHT22;56303;52.160;-0.428;2023-06-24T12:13:05;28.20;99.90
20744;DHT22;56303;52.160;-0.428;2023-06-24T12:15:33;28.10;99.90
20744;DHT22;56303;52.160;-0.428;2023-06-24T12:18:00;28.20;99.90
20744;DHT22;56303;52.160;-0.428;2023-06-24T12:20:28;28.20;99.90
20744;DHT22;56303;52.160;-0.428;2023-06-24T12:22:59;28.00;99.90
20744;DHT22;56303;52.160;-0.428;2023-06-24T12:25:26;27.90;99.90
20744;DHT22;56303;52.160;-0.428;2023-06-24T12:27:53;28.10;99.90
20744;DHT22;56303;52.160;-0.428;2023-06-24T12:30:20;28.00;99.90
20744;DHT22;56303;52.160;-0.428;2023-06-24T12:32:51;27.80;99.90
20744;DHT22;56303;52.160;-0.428;2023-06-24T12:35:18;27.70;99.90
20744;DHT22;56303;52.160;-0.428;2023-06-24T12:37:46;27.50;99.90
20744;DHT22;56303;52.160;-0.428;2023-06-24T12:40:14;27.20;99.90
20744;DHT22;56303;52.160;-0.428;2023-06-24T12:42:41;27.70;99.90
20744;DHT22;56303;52.160;-0.428;2023-06-24T12:45:08;27.70;99.90
20744;DHT22;56303;52.160;-0.428;2023-06-24T12:47:35;28.00;99.90
20744;DHT22;56303;52.160;-0.428;2023-06-24T12:50:02;27.90;99.90
20744;DHT22;56303;52.160;-0.428;2023-06-24T12:52:35;27.50;99.90
20744;DHT22;56303;52.160;-0.428;2023-06-24T12:55:02;27.70;99.90
20744;DHT22;56303;52.160;-0.428;2023-06-24T12:57:30;28.10;99.90
20744;DHT22;56303;52.160;-0.428;2023-06-24T12:59:57;28.50;99.90
20744;DHT22;56303;52.160;-0.428;2023-06-24T13:02:24;28.90;99.90
20744;DHT22;56303;52.160;-0.428;2023-06-24T13:04:51;29.20;99.90
20744;DHT22;56303;52.160;-0.428;2023-06-24T13:07:18;29.20;99.90
20744;DHT22;56303;52.160;-0.428;2023-06-24T13:09:45;29.50;99.90
20744;DHT22;56303;52.160;-0.428;2023-06-24T13:12:12;30.10;99.90
20744;DHT22;56303;52.160;-0.428;2023-06-24T13:14:39;30.20;99.90
20744;DHT22;56303;52.160;-0.428;2023-06-24T13:17:06;29.50;99.90
20744;DHT22;56303;52.160;-0.428;2023-06-24T13:19:33;29.50;99.90
20744;DHT22;56303;52.160;-0.428;2023-06-24T13:22:00;29.70;99.90
20744;DHT22;56303;52.160;-0.428;2023-06-24T13:24:27;29.80;99.90
20744;DHT22;56303;52.160;-0.428;2023-06-24T13:26:54;29.80;99.90
20744;DHT22;56303;52.160;-0.428;2023-06-24T13:29:21;29.60;99.90
20744;DHT22;56303;52.160;-0.428;2023-06-24T13:31:48;29.60;99.90
20744;DHT22;56303;52.160;-0.428;2023-06-24T13:34:15;29.60;99.90
20744;DHT22;56303;52.160;-0.428;2023-06-24T13:36:42;29.10;99.90
20744;DHT22;56303;52.160;-0.428;2023-06-24T13:39:09;29.40;99.90
20744;DHT22;56303;52.160;-0.428;2023-06-24T13:41:39;29.20;99.90
20744;DHT22;56303;52.160;-0.428;2023-06-24T13:44:07;29.10;99.90
20744;DHT22;56303;52.160;-0.428;2023-06-24T13:46:34;28.90;99.90
20744;DHT22;56303;52.160;-0.428;2023-06-24T13:49:01;29.30;99.90
20744;DHT22;56303;52.160;-0.428;2023-06-24T13:51:32;29.60;99.90
20744;DHT22;56303;52.160;-0.428;2023-06-24T13:53:59;29.90;99.90
20744;DHT22;56303;52.160;-0.428;2023-06-24T13:56:26;30.80;99.90
20744;DHT22;56303;52.160;-0.428;2023-06-24T13:58:54;31.30;99.90
20744;DHT22;56303;52.160;-0.428;2023-06-24T14:01:22;31.20;99.90
20744;DHT22;56303;52.160;-0.428;2023-06-24T14:03:50;31.50;99.90
20744;DHT22;56303;52.160;-0.428;2023-06-24T14:06:19;31.20;99.90
20744;DHT22;56303;52.160;-0.428;2023-06-24T14:08:47;31.30;99.90
20744;DHT22;56303;52.160;-0.428;2023-06-24T14:11:14;31.20;99.90
20744;DHT22;56303;52.160;-0.428;2023-06-24T14:13:42;31.30;99.90
20744;DHT22;56303;52.160;-0.428;2023-06-24T14:16:09;30.80;99.90
20744;DHT22;56303;52.160;-0.428;2023-06-24T14:18:39;30.80;99.90
20744;DHT22;56303;52.160;-0.428;2023-06-24T14:21:07;31.20;99.90
20744;DHT22;56303;52.160;-0.428;2023-06-24T14:23:34;30.50;99.90
20744;DHT22;56303;52.160;-0.428;2023-06-24T14:26:01;30.80;99.90
20744;DHT22;56303;52.160;-0.428;2023-06-24T14:28:29;30.50;99.90
20744;DHT22;56303;52.160;-0.428;2023-06-24T14:30:56;30.90;99.90
20744;DHT22;56303;52.160;-0.428;2023-06-24T14:33:23;31.00;99.90
20744;DHT22;56303;52.160;-0.428;2023-06-24T14:35:50;30.50;99.90
20744;DHT22;56303;52.160;-0.428;2023-06-24T14:38:18;30.60;99.90
20744;DHT22;56303;52.160;-0.428;2023-06-24T14:40:45;30.90;99.90
20744;DHT22;56303;52.160;-0.428;2023-06-24T14:43:12;30.80;99.90
20744;DHT22;56303;52.160;-0.428;2023-06-24T14:45:39;31.60;99.90
20744;DHT22;56303;52.160;-0.428;2023-06-24T14:48:06;31.80;99.90
20744;DHT22;56303;52.160;-0.428;2023-06-24T14:50:33;32.40;99.90
20744;DHT22;56303;52.160;-0.428;2023-06-24T14:53:00;33.10;99.90
20744;DHT22;56303;52.160;-0.428;2023-06-24T14:55:27;33.70;99.90
20744;DHT22;56303;52.160;-0.428;2023-06-24T14:57:54;33.20;98.50
20744;DHT22;56303;52.160;-0.428;2023-06-24T15:00:21;33.00;97.10
20744;DHT22;56303;52.160;-0.428;2023-06-24T15:02:47;33.80;97.70
20744;DHT22;56303;52.160;-0.428;2023-06-24T15:05:14;33.70;97.00
20744;DHT22;56303;52.160;-0.428;2023-06-24T15:07:41;34.20;98.20
20744;DHT22;56303;52.160;-0.428;2023-06-24T15:10:08;34.00;97.80
20744;DHT22;56303;52.160;-0.428;2023-06-24T15:12:35;34.30;97.40
20744;DHT22;56303;52.160;-0.428;2023-06-24T15:15:02;34.50;97.20
20744;DHT22;56303;52.160;-0.428;2023-06-24T15:17:29;34.50;97.30
20744;DHT22;56303;52.160;-0.428;2023-06-24T15:19:57;34.30;96.80
20744;DHT22;56303;52.160;-0.428;2023-06-24T15:22:24;34.70;96.80
20744;DHT22;56303;52.160;-0.428;2023-06-24T15:24:51;35.20;96.80
20744;DHT22;56303;52.160;-0.428;2023-06-24T15:27:18;34.60;97.20
20744;DHT22;56303;52.160;-0.428;2023-06-24T15:29:45;33.70;98.50
20744;DHT22;56303;52.160;-0.428;2023-06-24T15:32:12;33.90;98.00
20744;DHT22;56303;52.160;-0.428;2023-06-24T15:34:39;33.60;98.80
20744;DHT22;56303;52.160;-0.428;2023-06-24T15:37:06;33.10;99.80
20744;DHT22;56303;52.160;-0.428;2023-06-24T15:39:33;32.90;98.70
20744;DHT22;56303;52.160;-0.428;2023-06-24T15:42:00;32.50;99.40
20744;DHT22;56303;52.160;-0.428;2023-06-24T15:44:27;32.30;99.90
20744;DHT22;56303;52.160;-0.428;2023-06-24T15:46:54;32.50;99.50